Blackfoot, ID (83221)

8:33 AM MDT on August 28, 2015 (GMT -0600)
MyIdahoWeather.com | | Change Station
CLOSE
Current Station
Personal Weather Station
Location: Blackfoot, ID
Elevation: 4534 ft
Nearby Weather Stations

Elev 4534 ft 43.27 °N, 112.52 °W | Updated 4 seconds ago

Clear
Clear
56.6 °F
Feels Like 56.6 °F
N
3.8
Wind Variable Wind from NW
Gusts 4.0 mph

Today
High -- | Low -- °F
--% Chance of Precip.
Yesterday
High -- | Low -- °F
Precip. -- in
6:49 AM 8:11 PM
Waxing Gibbous, 98% visible
Pressure 30.14 in
Visibility 10.0 miles
Clouds Clear
Dew Point 45 °F
Humidity 66%
Rainfall 0.00 in
Snow Depth Not available.
UV 0.7 out of 12
Pollen 8.70 out of 12
Air Quality Not available.
Flu Activity Not available.
METAR KIDA 281353Z 34006KT 10SM CLR 12/07 A3024 RMK AO2 SLP206 HZ ALQDS T01220072
Pressure 30.14 in
Visibility 10.0 miles
Clouds Clear
Dew Point 45 °F
Humidity 66%
Rainfall 0.00 in
Snow Depth Not available.
UV 0.7 out of 12
Pollen 8.70 out of 12
Air Quality Not available.
Flu Activity Not available.
METAR KIDA 281353Z 34006KT 10SM CLR 12/07 A3024 RMK AO2 SLP206 HZ ALQDS T01220072

10-Day Weather Forecast

×

Almanac

Astronomy

Aug. 28, 2015 Rise Set
Actual Time
Civil Twilight
Nautical Twilight
Astronomical Twilight
Moon
Length of Visible Light
Length of Day
Tomorrow will be .
, % of the Moon is Illuminated

Today's Extremes

State Highs State Lows

Community

WunderPhotos

Upload Photos

1,850,386 photos uploaded!

WunderBlogs® & News

Nearby

Air Quality

  Air Quality AQ Index Pollutant
Not available.

Snow Depth

Station Depth Elevation

Earthquake Activity

City Distance Mag. Time & Date
Minimum magnitude displayed is 2.5.

Coastal Water Temperatures

Place Temperature

Stations

Nearby Weather Stations

Station Location Temp. Windchill Dew Point Humidity Wind Precip. Elev Updated Type